createdAt,value
2022-09-18T00:01:11.270Z,0.28
2022-09-18T00:03:39.565Z,0.30
2022-09-18T00:06:13.143Z,0.40
2022-09-18T00:08:41.233Z,0.13
2022-09-18T00:11:10.482Z,0.15
2022-09-18T00:13:38.865Z,0.10
2022-09-18T00:16:08.137Z,0.40
2022-09-18T00:18:35.626Z,0.15
2022-09-18T00:21:13.356Z,0.13
2022-09-18T00:23:41.726Z,0.68
2022-09-18T00:26:11.300Z,0.10
2022-09-18T00:28:38.666Z,0.25
2022-09-18T00:31:13.362Z,0.10
2022-09-18T00:33:40.951Z,0.25
2022-09-18T00:36:12.558Z,0.28
2022-09-18T00:38:39.953Z,0.20
2022-09-18T00:41:11.591Z,0.13
2022-09-18T00:43:39.226Z,0.20
2022-09-18T00:46:21.514Z,0.20
2022-09-18T00:49:22.631Z,0.20
2022-09-18T00:51:53.941Z,0.32
2022-09-18T00:54:29.477Z,0.20
2022-09-18T00:57:00.509Z,0.77
2022-09-18T00:59:31.129Z,1.00
2022-09-18T01:01:59.303Z,0.22
2022-09-18T01:04:28.044Z,0.20
2022-09-18T01:07:10.624Z,0.20
2022-09-18T01:10:07.160Z,0.22
2022-09-18T01:13:00.498Z,0.17
2022-09-18T01:15:52.986Z,0.25
2022-09-18T01:18:51.784Z,0.25
2022-09-18T01:21:38.756Z,0.17
2022-09-18T01:24:45.566Z,0.30
2022-09-18T01:27:43.558Z,0.43
2022-09-18T01:30:13.152Z,0.43
2022-09-18T01:32:51.048Z,0.17
2022-09-18T01:35:42.484Z,0.10
2022-09-18T01:38:20.937Z,0.20
2022-09-18T01:40:53.476Z,0.10
2022-09-18T01:43:22.269Z,0.30
2022-09-18T01:45:53.221Z,0.10
2022-09-18T01:48:34.084Z,0.17
2022-09-18T01:51:14.309Z,0.10
2022-09-18T01:53:46.307Z,0.40
2022-09-18T01:56:22.409Z,0.13
2022-09-18T01:58:53.655Z,0.13
2022-09-18T02:01:23.200Z,0.35
2022-09-18T02:03:56.613Z,0.20
2022-09-18T02:06:32.546Z,0.93
2022-09-18T02:09:01.337Z,0.50
2022-09-18T02:11:29.703Z,0.30
2022-09-18T02:14:11.180Z,0.10
2022-09-18T02:16:44.522Z,0.20
2022-09-18T02:19:25.996Z,0.10
2022-09-18T02:21:56.134Z,0.20
2022-09-18T02:24:28.619Z,0.10
2022-09-18T02:26:57.298Z,0.30
2022-09-18T02:29:25.986Z,0.10
2022-09-18T02:31:53.401Z,0.40
2022-09-18T02:34:21.647Z,0.17
2022-09-18T02:37:19.702Z,0.10
2022-09-18T02:40:22.209Z,0.25
2022-09-18T02:43:11.174Z,0.20
2022-09-18T02:45:53.592Z,0.10
2022-09-18T02:48:37.677Z,0.10
2022-09-18T02:51:28.739Z,0.10
2022-09-18T02:54:20.055Z,0.20
2022-09-18T02:56:56.243Z,0.13
2022-09-18T02:59:37.025Z,0.10
2022-09-18T03:02:06.843Z,0.40
2022-09-18T03:04:34.411Z,0.22
2022-09-18T03:07:01.445Z,0.30
2022-09-18T03:09:30.066Z,0.88
2022-09-18T03:11:57.084Z,0.20
2022-09-18T03:14:24.124Z,0.17
2022-09-18T03:16:51.368Z,0.20
2022-09-18T03:19:18.668Z,0.10
2022-09-18T03:21:46.343Z,0.30
2022-09-18T03:24:13.338Z,0.32
2022-09-18T03:26:40.741Z,0.63
2022-09-18T03:29:09.331Z,0.95
2022-09-18T03:31:36.588Z,0.50
2022-09-18T03:34:04.262Z,1.20
2022-09-18T03:36:31.570Z,0.50
2022-09-18T03:38:58.698Z,0.95
2022-09-18T03:41:25.756Z,0.60
2022-09-18T03:43:53.096Z,0.55
2022-09-18T03:46:23.713Z,1.75
2022-09-18T03:48:51.790Z,1.17
2022-09-18T03:51:20.133Z,1.10
2022-09-18T03:53:49.033Z,0.40
2022-09-18T03:56:16.201Z,0.40
2022-09-18T03:58:43.288Z,0.68
2022-09-18T04:01:12.077Z,0.38
2022-09-18T04:03:39.515Z,0.40
2022-09-18T04:06:07.483Z,0.40
2022-09-18T04:08:35.065Z,0.95
2022-09-18T04:11:04.604Z,0.50
2022-09-18T04:13:32.830Z,1.55
2022-09-18T04:15:59.944Z,0.60
2022-09-18T04:18:26.960Z,0.43
2022-09-18T04:20:54.051Z,0.50
2022-09-18T04:23:21.207Z,0.70
2022-09-18T04:25:48.398Z,0.50
2022-09-18T04:28:15.416Z,0.73
2022-09-18T04:30:42.596Z,0.30
2022-09-18T04:33:09.637Z,0.60
2022-09-18T04:35:36.690Z,0.50
2022-09-18T04:38:04.168Z,0.65
2022-09-18T04:40:31.534Z,1.02
2022-09-18T04:42:59.043Z,1.15
2022-09-18T04:45:29.173Z,0.77
2022-09-18T04:47:56.172Z,1.00
2022-09-18T04:50:23.185Z,0.60
2022-09-18T04:52:50.231Z,1.33
2022-09-18T04:55:17.366Z,0.70
2022-09-18T04:57:45.165Z,0.68
2022-09-18T05:00:12.532Z,0.60
2022-09-18T05:02:39.791Z,1.75
2022-09-18T05:05:07.059Z,0.40
2022-09-18T05:07:34.136Z,0.60
2022-09-18T05:10:01.179Z,1.13
2022-09-18T05:12:28.289Z,0.63
2022-09-18T05:14:55.592Z,0.80
2022-09-18T05:17:23.141Z,0.55
2022-09-18T05:19:50.184Z,1.38
2022-09-18T05:22:17.238Z,0.52
2022-09-18T05:24:44.237Z,0.60
2022-09-18T05:27:11.271Z,0.73
2022-09-18T05:29:38.319Z,0.73
2022-09-18T05:32:06.305Z,0.63
2022-09-18T05:34:33.820Z,0.63
2022-09-18T05:37:00.875Z,0.60
2022-09-18T05:39:27.912Z,1.75
2022-09-18T05:41:54.962Z,0.68
2022-09-18T05:44:21.943Z,0.75
2022-09-18T05:46:49.139Z,0.70
2022-09-18T05:49:16.205Z,4.95
2022-09-18T05:51:44.802Z,0.73
2022-09-18T05:54:12.176Z,0.65
2022-09-18T05:56:39.314Z,0.88
2022-09-18T05:59:06.338Z,0.80
2022-09-18T06:01:33.586Z,1.30
2022-09-18T06:04:02.793Z,0.73
2022-09-18T06:06:30.299Z,0.60
2022-09-18T06:08:57.777Z,0.70
2022-09-18T06:11:24.830Z,0.63
2022-09-18T06:13:52.679Z,0.52
2022-09-18T06:16:20.533Z,0.82
2022-09-18T06:18:47.689Z,0.60
2022-09-18T06:21:15.221Z,1.33
2022-09-18T06:23:42.837Z,0.70
2022-09-18T06:26:14.783Z,0.40
2022-09-18T06:28:42.239Z,0.60
2022-09-18T06:31:09.899Z,0.60
2022-09-18T06:33:37.130Z,0.70
2022-09-18T06:36:08.940Z,0.77
2022-09-18T06:38:36.136Z,1.02
2022-09-18T06:41:03.192Z,1.38
2022-09-18T06:43:30.258Z,1.45
2022-09-18T06:45:58.531Z,0.70
2022-09-18T06:48:26.128Z,0.52
2022-09-18T06:50:54.754Z,0.40
2022-09-18T06:53:22.284Z,0.40
2022-09-18T06:55:50.165Z,0.50
2022-09-18T06:58:18.807Z,0.70
2022-09-18T07:00:46.720Z,0.47
2022-09-18T07:03:13.911Z,0.88
2022-09-18T07:05:43.057Z,1.55
2022-09-18T07:08:10.421Z,0.45
2022-09-18T07:10:38.207Z,0.68
2022-09-18T07:13:05.293Z,1.08
2022-09-18T07:15:32.665Z,0.63
2022-09-18T07:18:02.066Z,0.65
2022-09-18T07:20:29.878Z,0.60
2022-09-18T07:23:02.041Z,0.55
2022-09-18T07:25:31.473Z,0.98
2022-09-18T07:28:08.123Z,0.63
2022-09-18T07:30:36.790Z,0.50
2022-09-18T07:33:06.147Z,0.65
2022-09-18T07:35:33.311Z,0.57
2022-09-18T07:38:01.162Z,0.47
2022-09-18T07:40:28.614Z,0.60
2022-09-18T07:43:00.890Z,0.47
2022-09-18T07:45:28.340Z,0.45
2022-09-18T07:47:55.609Z,0.75
2022-09-18T07:50:23.572Z,0.63
2022-09-18T07:52:56.521Z,1.60
2022-09-18T07:55:25.319Z,0.50
2022-09-18T07:57:57.920Z,0.40
2022-09-18T08:00:26.931Z,0.40
2022-09-18T08:03:09.965Z,0.52
2022-09-18T08:05:37.480Z,0.70
2022-09-18T08:08:09.983Z,0.30
2022-09-18T08:10:37.382Z,0.47
2022-09-18T08:13:04.773Z,0.60
2022-09-18T08:15:32.945Z,0.30
2022-09-18T08:18:00.949Z,0.30
2022-09-18T08:20:28.158Z,0.50
2022-09-18T08:22:55.357Z,0.40
2022-09-18T08:25:23.301Z,0.50
2022-09-18T08:27:50.433Z,0.60
2022-09-18T08:30:17.691Z,0.57
2022-09-18T08:32:44.832Z,0.40
2022-09-18T08:35:11.859Z,0.32
2022-09-18T08:37:39.011Z,0.50
2022-09-18T08:40:09.134Z,0.47
2022-09-18T08:45:47.348Z,0.32
2022-09-18T08:48:22.648Z,0.35
2022-09-18T08:50:58.456Z,3.25
2022-09-18T08:53:34.279Z,0.20
2022-09-18T08:56:04.651Z,1.85
2022-09-18T08:58:46.043Z,0.63
2022-09-18T09:01:18.120Z,1.08
2022-09-18T09:04:08.154Z,0.85
2022-09-18T09:07:14.862Z,0.63
2022-09-18T09:10:07.207Z,0.50
2022-09-18T09:13:13.981Z,0.82
2022-09-18T09:15:59.473Z,0.52
2022-09-18T09:18:35.344Z,0.30
2022-09-18T09:21:24.081Z,0.47
2022-09-18T09:24:24.811Z,0.60
2022-09-18T09:26:53.818Z,0.30
2022-09-18T09:29:29.363Z,0.40
2022-09-18T09:32:18.745Z,0.65
2022-09-18T09:34:53.388Z,0.30
2022-09-18T09:37:31.706Z,0.32
2022-09-18T09:42:47.557Z,0.68
2022-09-18T09:45:39.203Z,0.30
2022-09-18T09:48:26.636Z,0.30
2022-09-18T09:51:03.315Z,0.55
2022-09-18T09:53:30.587Z,0.43
2022-09-18T09:56:14.798Z,1.00
2022-09-18T09:59:03.002Z,0.57
2022-09-18T10:01:41.008Z,0.60
2022-09-18T10:04:38.159Z,0.28
2022-09-18T10:07:17.846Z,0.40
2022-09-18T10:10:16.354Z,0.57
2022-09-18T10:12:53.603Z,0.45
2022-09-18T10:15:38.934Z,0.40
2022-09-18T10:18:16.369Z,0.30
2022-09-18T10:20:45.909Z,0.30
2022-09-18T10:23:20.774Z,0.22
2022-09-18T10:25:55.848Z,0.30
2022-09-18T10:28:25.867Z,0.50
2022-09-18T10:31:09.601Z,0.32
2022-09-18T10:33:42.582Z,0.45
2022-09-18T10:36:20.133Z,0.30
2022-09-18T10:38:47.699Z,0.32
2022-09-18T10:41:36.063Z,0.50
2022-09-18T10:44:20.963Z,0.30
2022-09-18T10:47:10.235Z,0.40
2022-09-18T10:49:55.089Z,0.37
2022-09-18T10:52:39.198Z,0.20
2022-09-18T10:55:19.511Z,0.35
2022-09-18T10:58:14.873Z,0.17
2022-09-18T11:00:56.709Z,0.25
2022-09-18T11:03:39.595Z,0.30
2022-09-18T11:06:24.085Z,0.65
2022-09-18T11:08:53.273Z,0.25
2022-09-18T11:11:25.974Z,0.10
2022-09-18T11:14:15.706Z,0.28
2022-09-18T11:16:45.757Z,0.20
2022-09-18T11:21:48.351Z,0.10
2022-09-18T11:24:21.764Z,0.45
2022-09-18T11:26:57.465Z,0.17
2022-09-18T11:29:33.001Z,0.15
2022-09-18T11:32:21.327Z,1.17
2022-09-18T11:34:53.194Z,0.38
2022-09-18T11:37:36.563Z,0.60
2022-09-18T11:40:28.071Z,0.22
2022-09-18T11:42:55.997Z,0.52
2022-09-18T11:45:35.042Z,0.20
2022-09-18T11:48:38.515Z,0.40
2022-09-18T11:51:20.831Z,0.30
2022-09-18T11:53:55.458Z,0.22
2022-09-18T11:56:35.916Z,0.30
2022-09-18T11:59:12.105Z,0.22
2022-09-18T12:01:57.737Z,1.85
2022-09-18T12:04:49.521Z,0.20
2022-09-18T12:07:54.988Z,0.10
2022-09-18T12:11:00.114Z,0.15
2022-09-18T12:13:49.098Z,0.20
2022-09-18T12:16:28.533Z,0.30
2022-09-18T12:19:07.965Z,0.10
2022-09-18T12:21:45.339Z,0.20
2022-09-18T12:24:15.155Z,0.35
2022-09-18T12:26:57.516Z,0.30
2022-09-18T12:29:48.929Z,0.30
2022-09-18T12:32:40.097Z,0.32
2022-09-18T12:35:43.351Z,0.20
2022-09-18T12:38:30.297Z,0.25
2022-09-18T12:41:29.020Z,0.45
2022-09-18T12:44:21.385Z,0.22
2022-09-18T12:47:22.215Z,0.10
2022-09-18T12:50:18.292Z,0.20
2022-09-18T12:53:09.758Z,0.17
2022-09-18T12:56:03.391Z,0.10
2022-09-18T12:58:58.239Z,0.17
2022-09-18T13:01:35.006Z,0.30
2022-09-18T13:04:30.521Z,0.10
2022-09-18T13:07:05.311Z,0.10
2022-09-18T13:09:41.114Z,0.28
2022-09-18T13:12:18.276Z,1.85
2022-09-18T13:14:50.923Z,0.20
2022-09-18T13:17:28.631Z,0.10
2022-09-18T13:20:07.423Z,0.20
2022-09-18T13:22:37.339Z,0.10
2022-09-18T13:25:20.297Z,0.10
2022-09-18T13:27:47.585Z,0.20
2022-09-18T13:30:23.156Z,0.20
2022-09-18T13:32:50.221Z,0.20
2022-09-18T13:35:22.310Z,0.20
2022-09-18T13:38:03.314Z,0.30
2022-09-18T13:40:44.636Z,0.20
2022-09-18T13:43:38.839Z,0.10
2022-09-18T13:46:07.557Z,0.13
2022-09-18T13:48:44.678Z,0.10
2022-09-18T13:51:22.144Z,0.10
2022-09-18T13:54:27.792Z,0.10
2022-09-18T13:57:18.950Z,0.10
2022-09-18T13:59:52.604Z,0.25
2022-09-18T14:02:38.270Z,0.10
2022-09-18T14:05:29.738Z,0.15
2022-09-18T14:08:07.812Z,0.10
2022-09-18T14:11:14.223Z,0.10
2022-09-18T14:13:46.420Z,0.00
2022-09-18T14:16:31.069Z,0.13
2022-09-18T14:19:04.710Z,0.10
2022-09-18T14:21:40.846Z,0.10
2022-09-18T14:24:42.065Z,0.20
2022-09-18T14:27:37.317Z,0.10
2022-09-18T14:30:25.170Z,0.35
2022-09-18T14:33:16.876Z,0.28
2022-09-18T14:36:04.797Z,0.17
2022-09-18T14:38:37.906Z,0.10
2022-09-18T14:41:28.575Z,0.00
2022-09-18T14:44:01.295Z,0.32
2022-09-18T14:46:29.248Z,0.10
2022-09-18T14:48:56.564Z,0.10
2022-09-18T14:51:25.943Z,0.10
2022-09-18T14:53:56.227Z,0.10
2022-09-18T14:56:35.562Z,0.20
2022-09-18T14:59:07.510Z,0.10
2022-09-18T15:01:36.945Z,0.57
2022-09-18T15:04:06.855Z,0.20
2022-09-18T15:06:48.465Z,0.10
2022-09-18T15:09:23.689Z,0.70
2022-09-18T15:12:03.691Z,0.20
2022-09-18T15:14:44.046Z,0.10
2022-09-18T15:17:24.638Z,0.10
2022-09-18T15:19:59.205Z,0.10
2022-09-18T15:22:27.706Z,0.10
2022-09-18T15:24:55.367Z,0.10
2022-09-18T15:27:23.991Z,0.13
2022-09-18T15:30:02.414Z,0.20
2022-09-18T15:32:38.454Z,0.10
2022-09-18T15:35:08.926Z,0.25
2022-09-18T15:40:09.389Z,0.10
2022-09-18T15:42:40.216Z,0.10
2022-09-18T15:45:18.364Z,0.00
2022-09-18T15:47:46.089Z,0.00
2022-09-18T15:50:37.337Z,0.15
2022-09-18T15:53:21.913Z,0.00
2022-09-18T15:56:01.229Z,0.35
2022-09-18T15:58:40.845Z,0.20
2022-09-18T16:01:15.884Z,0.20
2022-09-18T16:03:43.161Z,0.10
2022-09-18T16:06:23.321Z,0.00
2022-09-18T16:11:41.658Z,0.10
2022-09-18T16:16:55.475Z,0.10
2022-09-18T16:19:22.583Z,0.05
2022-09-18T16:21:49.633Z,0.20
2022-09-18T16:24:29.863Z,0.68
2022-09-18T16:29:35.067Z,0.03
2022-09-18T16:32:02.285Z,0.15
2022-09-18T16:34:29.858Z,0.17
2022-09-18T16:36:57.076Z,0.10
2022-09-18T16:39:26.272Z,0.10
2022-09-18T16:41:53.747Z,0.10
2022-09-18T16:44:20.776Z,0.10
2022-09-18T16:47:00.856Z,0.10
2022-09-18T16:49:37.437Z,0.10
2022-09-18T16:52:05.326Z,0.32
2022-09-18T16:54:32.806Z,0.10
2022-09-18T16:57:11.602Z,0.00
2022-09-18T16:59:41.617Z,0.00
2022-09-18T17:02:09.526Z,0.25
2022-09-18T17:04:36.546Z,0.10
2022-09-18T17:07:03.929Z,0.05
2022-09-18T17:09:31.579Z,0.05
2022-09-18T17:11:58.828Z,0.30
2022-09-18T17:14:26.229Z,0.25
2022-09-18T17:16:53.892Z,0.08
2022-09-18T17:19:21.016Z,0.20
2022-09-18T17:21:50.768Z,0.10
2022-09-18T17:24:24.094Z,0.75
2022-09-18T17:26:51.367Z,0.10
2022-09-18T17:29:18.443Z,0.10
2022-09-18T17:31:45.561Z,0.10
2022-09-18T17:34:12.657Z,0.10
2022-09-18T17:36:40.318Z,0.10
2022-09-18T17:39:07.800Z,0.35
2022-09-18T17:41:35.011Z,0.10
2022-09-18T17:44:02.589Z,0.00
2022-09-18T17:46:29.682Z,0.10
2022-09-18T17:48:58.519Z,0.10
2022-09-18T17:51:28.688Z,0.25
2022-09-18T17:54:05.459Z,0.20
2022-09-18T17:56:33.685Z,0.30
2022-09-18T17:59:05.648Z,0.10
2022-09-18T18:01:36.370Z,0.15
2022-09-18T18:04:04.661Z,0.20
2022-09-18T18:06:32.525Z,0.17
2022-09-18T18:08:59.618Z,0.28
2022-09-18T18:11:26.935Z,0.20
2022-09-18T18:13:54.818Z,0.25
2022-09-18T18:16:25.160Z,0.30
2022-09-18T18:18:55.330Z,0.25
2022-09-18T18:21:23.052Z,0.28
2022-09-18T18:23:55.920Z,0.40
2022-09-18T18:26:22.996Z,0.38
2022-09-18T18:28:50.417Z,0.40
2022-09-18T18:31:17.893Z,0.30
2022-09-18T18:33:45.098Z,0.35
2022-09-18T18:36:18.927Z,0.30
2022-09-18T18:38:48.318Z,0.77
2022-09-18T18:41:17.218Z,0.30
2022-09-18T18:43:44.840Z,0.47
2022-09-18T18:46:15.583Z,1.23
2022-09-18T18:48:44.107Z,0.60
2022-09-18T18:51:14.575Z,0.43
2022-09-18T18:53:43.067Z,1.15
2022-09-18T18:56:15.339Z,0.68
2022-09-18T18:58:44.248Z,1.00
2022-09-18T19:01:14.819Z,0.60
2022-09-18T19:03:50.908Z,0.90
2022-09-18T19:06:19.100Z,1.25
2022-09-18T19:08:47.518Z,0.60
2022-09-18T19:11:16.495Z,0.70
2022-09-18T19:13:44.774Z,0.70
2022-09-18T19:16:13.343Z,2.15
2022-09-18T19:18:41.295Z,0.55
2022-09-18T19:21:08.448Z,1.00
2022-09-18T19:23:35.736Z,0.60
2022-09-18T19:26:02.932Z,2.78
2022-09-18T19:28:31.114Z,0.88
2022-09-18T19:31:05.188Z,0.82
2022-09-18T19:33:33.801Z,1.15
2022-09-18T19:36:06.399Z,1.83
2022-09-18T19:38:37.098Z,1.10
2022-09-18T19:41:18.839Z,2.08
2022-09-18T19:43:46.534Z,1.13
2022-09-18T19:46:24.311Z,0.82
2022-09-18T19:48:51.820Z,1.10
2022-09-18T19:51:19.365Z,0.90
2022-09-18T19:53:46.441Z,1.13
2022-09-18T19:56:33.161Z,1.20
2022-09-18T19:59:00.689Z,0.98
2022-09-18T20:01:27.680Z,1.50
2022-09-18T20:03:55.076Z,0.57
2022-09-18T20:06:23.050Z,0.90
2022-09-18T20:08:51.467Z,1.58
2022-09-18T20:11:18.809Z,1.27
2022-09-18T20:13:50.657Z,1.05
2022-09-18T20:16:17.959Z,1.35
2022-09-18T20:18:45.622Z,2.13
2022-09-18T20:21:15.108Z,1.15
2022-09-18T20:23:42.431Z,1.13
2022-09-18T20:26:12.262Z,0.73
2022-09-18T20:28:39.762Z,1.23
2022-09-18T20:31:10.318Z,1.40
2022-09-18T20:33:38.111Z,1.30
2022-09-18T20:36:06.685Z,1.20
2022-09-18T20:38:35.511Z,2.22
2022-09-18T20:41:07.106Z,1.23
2022-09-18T20:43:35.847Z,1.33
2022-09-18T20:46:05.489Z,1.92
2022-09-18T20:48:35.129Z,3.17
2022-09-18T20:51:09.810Z,1.63
2022-09-18T20:53:39.373Z,1.88
2022-09-18T20:56:07.474Z,1.88
2022-09-18T20:58:35.337Z,1.63
2022-09-18T21:01:08.470Z,1.88
2022-09-18T21:03:36.131Z,1.60
2022-09-18T21:06:21.976Z,2.45
2022-09-18T21:08:50.725Z,1.67
2022-09-18T21:11:23.042Z,1.55
2022-09-18T21:13:54.402Z,1.30
2022-09-18T21:16:22.351Z,1.58
2022-09-18T21:18:50.304Z,1.67
2022-09-18T21:21:17.896Z,1.80
2022-09-18T21:23:54.601Z,1.67
2022-09-18T21:26:23.264Z,1.92
2022-09-18T21:28:51.642Z,2.33
2022-09-18T21:31:19.208Z,2.60
2022-09-18T21:33:46.875Z,1.90
2022-09-18T21:36:14.355Z,3.03
2022-09-18T21:38:42.317Z,1.55
2022-09-18T21:41:11.966Z,2.20
2022-09-18T21:43:39.125Z,1.58
2022-09-18T21:46:08.647Z,1.80
2022-09-18T21:48:35.800Z,2.28
2022-09-18T21:51:07.793Z,2.15
2022-09-18T21:53:35.255Z,2.08
2022-09-18T21:56:06.587Z,2.03
2022-09-18T21:58:40.069Z,1.92
2022-09-18T22:01:14.474Z,1.83
2022-09-18T22:03:50.606Z,1.50
2022-09-18T22:06:19.375Z,1.90
2022-09-18T22:08:52.523Z,2.38
2022-09-18T22:11:21.843Z,1.65
2022-09-18T22:13:48.960Z,4.10
2022-09-18T22:16:16.176Z,1.77
2022-09-18T22:18:43.241Z,1.90
2022-09-18T22:21:28.901Z,1.75
2022-09-18T22:23:59.123Z,1.92
2022-09-18T22:28:56.660Z,2.00
2022-09-18T22:31:24.980Z,1.60
2022-09-18T22:33:57.761Z,1.85
2022-09-18T22:36:25.784Z,2.92
2022-09-18T22:38:53.781Z,1.88
2022-09-18T22:41:21.424Z,2.17
2022-09-18T22:43:53.186Z,2.03
2022-09-18T22:46:20.287Z,1.33
2022-09-18T22:48:47.575Z,1.80
2022-09-18T22:51:17.941Z,1.40
2022-09-18T22:53:57.447Z,1.60
2022-09-18T22:56:26.375Z,2.92
2022-09-18T22:58:54.850Z,2.33
2022-09-18T23:01:32.058Z,4.68
2022-09-18T23:04:02.589Z,2.35
2022-09-18T23:06:31.309Z,1.38
2022-09-18T23:09:00.170Z,1.80
2022-09-18T23:11:29.855Z,2.15
2022-09-18T23:14:00.046Z,2.28
2022-09-18T23:18:58.511Z,2.30
2022-09-18T23:23:55.786Z,2.28
2022-09-18T23:26:25.516Z,1.40
2022-09-18T23:28:54.610Z,1.52
2022-09-18T23:31:25.796Z,1.50
2022-09-18T23:33:55.732Z,1.00
2022-09-18T23:36:25.485Z,1.90
2022-09-18T23:38:58.776Z,1.48
2022-09-18T23:41:26.848Z,2.05
2022-09-18T23:43:54.458Z,1.70
2022-09-18T23:46:22.782Z,3.10
2022-09-18T23:48:55.160Z,1.55
2022-09-18T23:51:24.542Z,2.45
2022-09-18T23:53:52.325Z,2.33
2022-09-18T23:56:19.348Z,1.92
2022-09-18T23:58:46.624Z,1.52
